Time;durP1;ratioP1;P1;durP2;ratioP2;P2;SDS_P1;SDS_P2;PMS_P1;PMS_P2;Temp;Humidity;BMP_temperature;BMP_pressure;BME280_temperature;BME280_humidity;BME280_pressure;Samples;Min_cycle;Max_cycle;Signal;HPM_P1;HPM_P2
2022/11/10 00:01:24;;;;;;;;;;;;;;;24.31;58.32;97565.57;585212;242;44145;-67
2022/11/10 00:04:10;;;;;;;;;;;;;;;24.30;58.14;97570.11;581797;242;41003;-67
2022/11/10 00:06:56;;;;;;;;;;;;;;;24.30;58.20;97574.69;581576;244;40117;-67
2022/11/10 00:09:41;;;;;;;;;;;;;;;24.30;58.22;97574.69;581638;242;39870;-67
2022/11/10 00:12:27;;;;;;;;;;;;;;;24.29;58.64;97573.89;581654;242;41084;-67
2022/11/10 00:18:16;;;;;;;;;;;;;;;24.29;57.31;97567.73;581551;244;39901;-68
2022/11/10 00:21:03;;;;;;;;;;;;;;;24.28;58.71;97566.10;581594;244;38918;-68
2022/11/10 00:23:48;;;;;;;;;;;;;;;24.28;57.68;97577.67;581596;244;40058;-67
2022/11/10 00:26:34;;;;;;;;;;;;;;;24.27;58.32;97570.67;581554;244;39850;-68
2022/11/10 00:29:20;;;;;;;;;;;;;;;24.27;57.54;97564.51;581628;244;38518;-67
2022/11/10 00:32:06;;;;;;;;;;;;;;;24.26;57.76;97562.91;581583;244;39893;-68
2022/11/10 00:34:52;;;;;;;;;;;;;;;24.25;57.35;97562.09;581569;244;39790;-68
2022/11/10 00:37:38;;;;;;;;;;;;;;;24.26;58.51;97561.03;581561;244;38899;-67
2022/11/10 00:40:24;;;;;;;;;;;;;;;24.25;57.99;97564.77;581610;244;41777;-67
2022/11/10 00:43:11;;;;;;;;;;;;;;;24.25;58.81;97559.41;581581;244;42886;-70
2022/11/10 00:45:57;;;;;;;;;;;;;;;24.24;58.25;97560.50;581625;244;38875;-69
2022/11/10 00:48:42;;;;;;;;;;;;;;;24.24;58.39;97554.33;581561;244;43100;-70
2022/11/10 00:51:29;;;;;;;;;;;;;;;24.24;57.94;97549.75;581536;244;44238;-70
2022/11/10 00:54:15;;;;;;;;;;;;;;;24.24;58.41;97560.50;581581;244;41012;-70
2022/11/10 00:57:00;;;;;;;;;;;;;;;24.23;57.95;97552.73;581566;244;44493;-70
2022/11/10 00:59:46;;;;;;;;;;;;;;;24.23;58.26;97553.53;581531;244;39088;-70
2022/11/10 01:02:32;;;;;;;;;;;;;;;24.21;58.63;97544.15;582482;242;38951;-69
2022/11/10 01:05:17;;;;;;;;;;;;;;;24.23;59.26;97552.73;585220;242;40196;-70
2022/11/10 01:08:03;;;;;;;;;;;;;;;24.21;57.64;97550.31;585236;242;39780;-70
2022/11/10 01:10:48;;;;;;;;;;;;;;;24.21;59.71;97549.52;585242;242;38885;-70
2022/11/10 01:13:35;;;;;;;;;;;;;;;24.21;59.19;97549.52;585274;242;40126;-70
2022/11/10 01:16:22;;;;;;;;;;;;;;;24.20;58.58;97545.20;585219;242;40428;-70
2022/11/10 01:19:07;;;;;;;;;;;;;;;24.19;58.41;97543.61;585222;242;38934;-70
2022/11/10 01:21:53;;;;;;;;;;;;;;;24.19;60.08;97543.61;585222;242;40170;-70
2022/11/10 01:24:38;;;;;;;;;;;;;;;24.18;58.93;97544.70;585208;242;40085;-70
2022/11/10 01:27:24;;;;;;;;;;;;;;;24.18;59.90;97545.50;585220;242;39864;-70
2022/11/10 01:30:10;;;;;;;;;;;;;;;24.18;58.51;97542.02;585220;242;44244;-71
2022/11/10 01:32:55;;;;;;;;;;;;;;;24.17;58.32;97540.40;585176;242;43264;-70
2022/11/10 01:35:41;;;;;;;;;;;;;;;24.17;59.48;97543.88;585223;242;41089;-71
2022/11/10 01:38:28;;;;;;;;;;;;;;;24.17;57.61;97543.08;585188;242;40145;-68
2022/11/10 01:41:14;;;;;;;;;;;;;;;24.17;58.52;97543.08;585236;242;40403;-67
2022/11/10 01:44:01;;;;;;;;;;;;;;;24.16;60.76;97539.60;585200;242;41106;-67
2022/11/10 01:46:46;;;;;;;;;;;;;;;24.14;58.48;97539.90;585199;242;44785;-68
2022/11/10 01:49:34;;;;;;;;;;;;;;;24.16;58.76;97542.29;585191;242;43133;-68
2022/11/10 01:52:20;;;;;;;;;;;;;;;24.14;58.17;97541.76;585194;242;39182;-67
2022/11/10 01:55:06;;;;;;;;;;;;;;;24.13;57.99;97538.27;585178;242;40337;-69
2022/11/10 01:57:52;;;;;;;;;;;;;;;24.13;58.35;97538.27;585174;242;43218;-70
2022/11/10 02:00:37;;;;;;;;;;;;;;;24.12;58.61;97539.36;585172;242;40990;-69
2022/11/10 02:03:24;;;;;;;;;;;;;;;24.13;59.82;97540.16;582954;242;44549;-69
2022/11/10 02:06:10;;;;;;;;;;;;;;;24.12;58.81;97535.89;581533;244;41236;-70
2022/11/10 02:08:58;;;;;;;;;;;;;;;24.13;58.86;97545.53;581547;244;41102;-71
2022/11/10 02:11:43;;;;;;;;;;;;;;;24.11;59.52;97543.11;581505;244;40308;-70
2022/11/10 02:14:29;;;;;;;;;;;;;;;24.11;60.30;97553.86;581567;244;40392;-70
2022/11/10 02:17:15;;;;;;;;;;;;;;;24.10;59.36;97554.95;581586;244;41285;-70
2022/11/10 02:20:03;;;;;;;;;;;;;;;24.09;58.23;97545.30;581519;244;40438;-70
2022/11/10 02:22:49;;;;;;;;;;;;;;;24.09;57.83;97542.61;581526;244;44546;-71
2022/11/10 02:25:35;;;;;;;;;;;;;;;24.09;59.08;97550.66;581555;244;39122;-69
2022/11/10 02:28:20;;;;;;;;;;;;;;;24.09;59.22;97547.16;581533;244;40403;-70
2022/11/10 02:31:08;;;;;;;;;;;;;;;24.08;59.24;97545.56;581552;244;40261;-70
2022/11/10 02:33:53;;;;;;;;;;;;;;;24.08;58.68;97545.56;581545;242;39113;-69
2022/11/10 02:36:39;;;;;;;;;;;;;;;24.07;56.99;97549.34;581552;244;39211;-69
2022/11/10 02:39:25;;;;;;;;;;;;;;;24.08;60.50;97558.98;581503;244;40640;-69
2022/11/10 02:42:11;;;;;;;;;;;;;;;24.07;59.53;97550.13;581574;244;39918;-69
2022/11/10 02:44:57;;;;;;;;;;;;;;;24.06;59.62;97553.91;581574;244;40452;-69
2022/11/10 02:47:43;;;;;;;;;;;;;;;24.06;56.96;97559.28;581577;244;43157;-70
2022/11/10 02:50:28;;;;;;;;;;;;;;;24.05;58.52;97557.66;581522;244;39802;-70
2022/11/10 02:53:14;;;;;;;;;;;;;;;24.05;58.90;97563.03;581531;244;44586;-69
2022/11/10 02:55:59;;;;;;;;;;;;;;;24.05;58.14;97559.55;581516;244;44330;-70
2022/11/10 02:58:45;;;;;;;;;;;;;;;24.05;59.19;97567.59;581511;244;38934;-70
2022/11/10 03:01:31;;;;;;;;;;;;;;;24.05;57.70;97572.97;581516;244;40031;-71
2022/11/10 03:04:16;;;;;;;;;;;;;;;24.04;59.31;97576.75;585053;242;40331;-71
2022/11/10 03:07:02;;;;;;;;;;;;;;;24.03;57.42;97567.06;585156;242;41416;-71
2022/11/10 03:09:48;;;;;;;;;;;;;;;24.02;57.44;97577.01;585176;242;43506;-71
2022/11/10 03:12:34;;;;;;;;;;;;;;;24.01;59.05;97572.73;585253;242;40528;-71
2022/11/10 03:15:19;;;;;;;;;;;;;;;24.01;58.71;97578.10;585202;242;39178;-71
2022/11/10 03:18:05;;;;;;;;;;;;;;;24.01;57.75;97577.27;585185;242;40407;-71
2022/11/10 03:20:51;;;;;;;;;;;;;;;24.00;57.99;97579.16;585167;242;43264;-71
2022/11/10 03:23:37;;;;;;;;;;;;;;;24.00;58.50;97584.53;585196;242;39026;-71
2022/11/10 03:26:23;;;;;;;;;;;;;;;24.00;57.91;97581.05;585246;242;40319;-71
2022/11/10 03:29:08;;;;;;;;;;;;;;;23.99;58.17;97577.56;585203;242;44563;-71
2022/11/10 03:31:54;;;;;;;;;;;;;;;23.99;59.20;97579.45;585185;242;41085;-71
2022/11/10 03:34:41;;;;;;;;;;;;;;;23.98;58.93;97575.97;585216;242;42086;-71
2022/11/10 03:37:26;;;;;;;;;;;;;;;23.98;58.88;97575.97;585190;242;44518;-71
2022/11/10 03:40:12;;;;;;;;;;;;;;;23.99;59.61;97579.45;585192;242;39135;-71
2022/11/10 03:42:59;;;;;;;;;;;;;;;23.96;59.63;97572.75;585263;242;43372;-71
2022/11/10 03:45:45;;;;;;;;;;;;;;;23.96;59.25;97586.17;585248;242;44662;-71
2022/11/10 03:48:31;;;;;;;;;;;;;;;23.96;57.91;97572.75;585184;242;39194;-69
2022/11/10 03:51:16;;;;;;;;;;;;;;;23.95;59.33;97573.02;585205;242;44540;-71
2022/11/10 03:54:02;;;;;;;;;;;;;;;23.95;59.88;97576.50;585255;242;40157;-70
2022/11/10 03:56:48;;;;;;;;;;;;;;;23.95;57.08;97578.39;585197;242;39102;-68
2022/11/10 03:59:33;;;;;;;;;;;;;;;23.95;58.55;97570.33;585191;242;44728;-68
2022/11/10 04:02:19;;;;;;;;;;;;;;;23.94;58.37;97577.59;585153;242;40722;-67
2022/11/10 04:15:40;;;;;;;;;;;;;;;23.92;58.85;97575.17;585211;242;43211;-67
2022/11/10 04:17:08;;;;;;;;;;;;;;;23.91;57.86;97580.83;585200;242;44608;-67
2022/11/10 04:19:54;;;;;;;;;;;;;;;23.90;59.02;97579.23;585172;242;40404;-68
2022/11/10 04:26:27;;;;;;;;;;;;;;;23.89;57.61;97578.41;585319;242;40498;-68
2022/11/10 04:28:30;;;;;;;;;;;;;;;23.88;58.47;97581.39;585236;242;40495;-67
2022/11/10 04:31:16;;;;;;;;;;;;;;;23.88;59.36;97579.50;585194;242;40123;-67
2022/11/10 04:34:02;;;;;;;;;;;;;;;23.88;59.68;97584.06;585163;242;44856;-67
2022/11/10 04:36:47;;;;;;;;;;;;;;;23.88;58.64;97592.13;585155;242;44324;-67
2022/11/10 04:39:33;;;;;;;;;;;;;;;23.87;59.67;97593.18;585178;242;41380;-67
2022/11/10 04:42:19;;;;;;;;;;;;;;;23.86;58.18;97591.59;585198;242;40292;-67
2022/11/10 04:45:05;;;;;;;;;;;;;;;23.86;59.21;97586.22;585201;242;42010;-67
2022/11/10 04:47:50;;;;;;;;;;;;;;;23.86;58.61;97588.91;585237;242;38950;-68
2022/11/10 04:50:36;;;;;;;;;;;;;;;23.85;58.79;97593.47;585239;242;44497;-68
2022/11/10 04:53:24;;;;;;;;;;;;;;;23.84;59.63;97597.22;585221;242;40094;-68
2022/11/10 04:56:10;;;;;;;;;;;;;;;23.84;58.46;97593.73;585262;242;38771;-69
2022/11/10 04:58:56;;;;;;;;;;;;;;;23.84;60.67;97602.59;585164;242;43116;-67
2022/11/10 05:01:42;;;;;;;;;;;;;;;23.83;59.78;97608.25;585196;242;40172;-68
2022/11/10 05:04:27;;;;;;;;;;;;;;;23.84;60.07;97607.16;585234;241;38807;-68
2022/11/10 05:07:13;;;;;;;;;;;;;;;23.83;59.19;97608.25;585141;242;42798;-67
2022/11/10 05:09:59;;;;;;;;;;;;;;;23.83;60.83;97602.88;585162;242;42822;-68
2022/11/10 05:12:44;;;;;;;;;;;;;;;23.81;58.91;97610.39;585207;242;38870;-68
2022/11/10 05:15:31;;;;;;;;;;;;;;;23.80;58.83;97609.59;585175;242;39997;-67
2022/11/10 05:18:17;;;;;;;;;;;;;;;23.80;58.93;97614.96;585147;242;40162;-67
2022/11/10 05:21:02;;;;;;;;;;;;;;;23.81;61.21;97626.50;585155;242;39108;-67
2022/11/10 05:23:48;;;;;;;;;;;;;;;23.79;58.89;97618.73;585183;242;39334;-69
2022/11/10 05:26:34;;;;;;;;;;;;;;;23.80;58.23;97622.22;585153;242;45235;-68
2022/11/10 05:29:19;;;;;;;;;;;;;;;23.79;59.75;97625.96;585203;242;41071;-67
2022/11/10 05:32:05;;;;;;;;;;;;;;;23.79;58.12;97628.64;585189;242;40390;-68
2022/11/10 05:34:50;;;;;;;;;;;;;;;23.79;60.13;97631.33;585139;242;44793;-68
2022/11/10 05:37:38;;;;;;;;;;;;;;;23.80;59.27;97633.75;585215;242;41079;-69
2022/11/10 05:40:24;;;;;;;;;;;;;;;23.78;56.60;97633.22;585170;242;40302;-68
2022/11/10 05:43:10;;;;;;;;;;;;;;;23.80;59.87;97638.32;585049;242;40326;-68
2022/11/10 05:45:56;;;;;;;;;;;;;;;23.78;59.51;97635.90;585222;242;38867;-68
2022/11/10 05:48:41;;;;;;;;;;;;;;;23.75;58.55;97638.33;585176;242;40022;-68
2022/11/10 05:51:27;;;;;;;;;;;;;;;23.73;58.33;97643.16;585150;242;40398;-69
2022/11/10 05:54:13;;;;;;;;;;;;;;;23.74;60.33;97644.80;585238;242;39485;-68
2022/11/10 05:56:58;;;;;;;;;;;;;;;23.72;59.51;97649.62;585193;242;45163;-72
2022/11/10 05:59:44;;;;;;;;;;;;;;;23.70;58.16;97645.28;585110;242;43263;-72
2022/11/10 06:02:30;;;;;;;;;;;;;;;23.71;58.76;97654.19;584296;242;41114;-70
2022/11/10 06:05:15;;;;;;;;;;;;;;;23.72;59.73;97660.36;581541;244;40403;-71
2022/11/10 06:08:01;;;;;;;;;;;;;;;23.70;59.40;97657.90;581532;244;40398;-71
2022/11/10 06:10:47;;;;;;;;;;;;;;;23.71;59.70;97664.92;581537;244;39038;-71
2022/11/10 06:13:33;;;;;;;;;;;;;;;23.69;60.83;97665.16;581496;244;40301;-71
2022/11/10 06:16:19;;;;;;;;;;;;;;;23.68;58.55;97660.87;581525;244;40327;-71
2022/11/10 06:19:04;;;;;;;;;;;;;;;23.69;59.86;97665.16;581548;244;39141;-73
2022/11/10 06:21:50;;;;;;;;;;;;;;;23.69;59.40;97662.47;581516;244;43290;-71
2022/11/10 06:24:35;;;;;;;;;;;;;;;23.70;60.28;97672.11;581584;244;42000;-71
2022/11/10 06:27:21;;;;;;;;;;;;;;;23.73;60.01;97659.27;581526;244;39185;-70
2022/11/10 06:30:07;;;;;;;;;;;;;;;23.73;61.02;97664.63;581529;244;44706;-70
2022/11/10 06:32:53;;;;;;;;;;;;;;;23.74;57.73;97668.94;581360;244;40308;-70
2022/11/10 06:35:38;;;;;;;;;;;;;;;23.75;59.10;97670.54;581545;244;39841;-71
2022/11/10 06:38:24;;;;;;;;;;;;;;;23.75;59.58;97662.48;581533;244;43246;-72
2022/11/10 06:41:10;;;;;;;;;;;;;;;23.77;60.89;97674.56;581540;244;40057;-72
2022/11/10 06:43:56;;;;;;;;;;;;;;;23.78;59.16;97669.98;581548;244;39210;-71
2022/11/10 06:46:42;;;;;;;;;;;;;;;23.78;61.33;97672.67;581519;244;44977;-72
2022/11/10 06:49:27;;;;;;;;;;;;;;;23.80;59.64;97670.53;581511;244;43532;-72
2022/11/10 06:52:13;;;;;;;;;;;;;;;23.80;62.06;97676.70;581577;244;39627;-71
2022/11/10 06:54:59;;;;;;;;;;;;;;;23.80;58.22;97673.21;581584;244;40300;-72
2022/11/10 06:57:44;;;;;;;;;;;;;;;23.81;60.09;97670.23;581556;241;41989;-71
2022/11/10 07:00:30;;;;;;;;;;;;;;;23.83;61.31;97678.03;581517;244;41121;-71
2022/11/10 07:03:16;;;;;;;;;;;;;;;23.82;60.29;97671.86;583571;242;44739;-71
2022/11/10 07:06:01;;;;;;;;;;;;;;;23.83;56.89;97672.66;585195;241;40407;-72
2022/11/10 07:08:47;;;;;;;;;;;;;;;23.85;61.11;97670.52;585224;242;38925;-72
2022/11/10 07:11:34;;;;;;;;;;;;;;;23.85;58.30;97671.31;585224;242;40090;-71
2022/11/10 07:14:19;;;;;;;;;;;;;;;23.86;59.06;97677.48;585208;242;44589;-71
2022/11/10 07:17:05;;;;;;;;;;;;;;;23.87;58.54;97673.70;585143;241;39739;-73
2022/11/10 07:19:50;;;;;;;;;;;;;;;23.89;58.74;97674.24;585191;242;40635;-68
2022/11/10 07:22:36;;;;;;;;;;;;;;;23.88;58.23;97668.08;585225;242;40327;-68
2022/11/10 07:25:22;;;;;;;;;;;;;;;23.91;59.75;97669.41;585093;242;41061;-68
2022/11/10 07:28:06;;;;;;;;;;;;;;;;;;585133;242;44569;-67
2022/11/10 07:30:52;;;;;;;;;;;;;;;23.92;57.73;97677.17;585246;242;40338;-69
2022/11/10 07:33:38;;;;;;;;;;;;;;;23.92;58.86;97671.02;585184;242;39106;-69
2022/11/10 07:36:27;;;;;;;;;;;;;;;23.93;57.75;97673.44;584752;242;43357;-70
2022/11/10 07:39:11;;;;;;;;;;;;;;;23.98;58.79;97674.48;585150;242;40422;-65
2022/11/10 07:41:57;;;;;;;;;;;;;;;24.00;61.85;97670.44;585173;242;40120;-68
2022/11/10 07:44:43;;;;;;;;;;;;;;;23.99;57.47;97671.53;585057;242;42080;-67
2022/11/10 07:47:28;;;;;;;;;;;;;;;24.02;55.32;97670.98;584943;242;44470;-67
2022/11/10 07:50:14;;;;;;;;;;;;;;;24.03;57.50;97671.78;585154;242;39716;-67
2022/11/10 07:53:06;;;;;;;;;;;;;;;24.04;56.71;97668.03;585216;242;44640;-67
2022/11/10 07:55:51;;;;;;;;;;;;;;;24.05;57.12;97673.11;585241;242;43290;-71
2022/11/10 07:58:37;;;;;;;;;;;;;;;24.06;56.31;97664.00;585091;242;39262;-74
2022/11/10 08:01:22;;;;;;;;;;;;;;;24.06;57.40;97661.31;585174;242;44544;-75
2022/11/10 08:04:08;;;;;;;;;;;;;;;24.08;58.97;97667.19;585177;242;40181;-75
2022/11/10 08:06:54;;;;;;;;;;;;;;;24.09;56.79;97663.44;585131;242;39077;-75
2022/11/10 08:09:40;;;;;;;;;;;;;;;24.09;55.76;97663.44;585163;242;44954;-75
2022/11/10 08:12:25;;;;;;;;;;;;;;;24.09;55.48;97655.39;585090;242;40733;-74
2022/11/10 08:15:11;;;;;;;;;;;;;;;24.10;54.96;97656.98;585170;242;39147;-75
2022/11/10 08:18:01;;;;;;;;;;;;;;;24.10;54.71;97656.98;585171;242;40415;-73
2022/11/10 08:20:47;;;;;;;;;;;;;;;24.11;54.84;97658.58;585123;242;44393;-73
2022/11/10 08:23:33;;;;;;;;;;;;;;;24.12;55.88;97665.57;585218;242;39142;-71
2022/11/10 08:26:20;;;;;;;;;;;;;;;24.13;55.07;97666.38;585211;242;41954;-70
2022/11/10 08:29:05;;;;;;;;;;;;;;;24.13;55.39;97661.80;585185;242;43248;-69
2022/11/10 08:31:52;;;;;;;;;;;;;;;24.13;55.88;97664.48;585198;242;41087;-68
2022/11/10 08:34:37;;;;;;;;;;;;;;;24.14;56.44;97667.97;585147;242;40102;-70
2022/11/10 08:37:23;;;;;;;;;;;;;;;24.14;54.96;97660.73;585110;242;44994;-67
2022/11/10 08:40:09;;;;;;;;;;;;;;;24.14;56.57;97659.91;585167;242;40970;-66
2022/11/10 08:43:02;;;;;;;;;;;;;;;24.15;55.43;97653.48;585183;241;40644;-67
2022/11/10 08:45:47;;;;;;;;;;;;;;;24.13;56.15;97659.11;585191;242;43181;-69
2022/11/10 08:48:33;;;;;;;;;;;;;;;24.14;55.64;97654.54;585105;242;46713;-68
2022/11/10 08:51:20;;;;;;;;;;;;;;;24.16;56.16;97655.08;585177;242;43268;-70
2022/11/10 08:54:05;;;;;;;;;;;;;;;24.15;55.53;97656.96;585178;242;40377;-70
2022/11/10 08:56:51;;;;;;;;;;;;;;;24.15;55.41;97650.80;585153;241;40410;-70
2022/11/10 08:59:37;;;;;;;;;;;;;;;24.17;55.29;97653.19;585227;242;40416;-70
2022/11/10 09:02:22;;;;;;;;;;;;;;;24.17;55.32;97653.19;584393;242;40425;-70
2022/11/10 09:05:08;;;;;;;;;;;;;;;24.14;55.05;97647.31;581538;244;39563;-71
2022/11/10 09:07:55;;;;;;;;;;;;;;;24.15;54.38;97654.27;581537;244;43255;-67
2022/11/10 09:10:42;;;;;;;;;;;;;;;24.15;55.23;97654.27;581460;244;40404;-67
2022/11/10 09:13:28;;;;;;;;;;;;;;;24.13;51.79;97644.89;581512;244;39111;-68
2022/11/10 09:16:14;;;;;;;;;;;;;;;24.11;57.10;97650.52;581484;244;44812;-68
2022/11/10 09:19:00;;;;;;;;;;;;;;;24.10;57.60;97646.23;581483;244;40402;-68
2022/11/10 09:21:45;;;;;;;;;;;;;;;24.11;57.86;97647.04;581515;244;41092;-69
2022/11/10 09:24:31;;;;;;;;;;;;;;;24.13;58.52;97651.06;581477;244;40304;-67
2022/11/10 09:27:16;;;;;;;;;;;;;;;24.13;58.58;97655.63;581616;244;42862;-67
2022/11/10 09:30:03;;;;;;;;;;;;;;;24.11;58.31;97647.84;581594;244;38850;-66
2022/11/10 09:32:50;;;;;;;;;;;;;;;24.13;56.43;97644.89;581543;244;40016;-67
2022/11/10 09:35:36;;;;;;;;;;;;;;;24.12;56.79;97654.03;581561;244;39681;-67
2022/11/10 09:38:26;;;;;;;;;;;;;;;24.11;57.75;97647.04;581452;244;38852;-68
2022/11/10 09:41:10;;;;;;;;;;;;;;;24.10;57.42;97646.23;581540;244;40010;-69
2022/11/10 09:44:13;;;;;;;;;;;;;;;24.10;56.54;97646.23;581539;244;40167;-68
2022/11/10 09:47:01;;;;;;;;;;;;;;;24.10;56.78;97648.92;581875;241;39912;-68
2022/11/10 09:49:48;;;;;;;;;;;;;;;24.11;55.79;97636.30;585914;242;40101;-68
2022/11/10 09:52:35;;;;;;;;;;;;;;;24.11;56.69;97638.98;585822;242;40314;-68
2022/11/10 09:55:37;;;;;;;;;;;;;;;24.10;55.59;97640.88;585906;242;38986;-68
2022/11/10 09:58:24;;;;;;;;;;;;;;;24.11;56.47;97634.41;585896;242;44336;-68
2022/11/10 10:01:21;;;;;;;;;;;;;;;24.11;53.84;97636.30;585827;242;40427;-68
2022/11/10 10:04:13;;;;;;;;;;;;;;;24.11;57.17;97628.24;585862;241;41033;-68
2022/11/10 10:07:04;;;;;;;;;;;;;;;24.11;57.62;97631.72;585897;242;44766;-67
2022/11/10 10:10:00;;;;;;;;;;;;;;;24.10;55.13;97627.45;585927;242;44499;-73
2022/11/10 10:12:47;;;;;;;;;;;;;;;24.12;55.14;97622.61;585920;242;41255;-73
2022/11/10 10:15:51;;;;;;;;;;;;;;;24.11;56.50;97620.98;585868;242;44936;-73
2022/11/10 10:18:47;;;;;;;;;;;;;;;24.11;57.41;97620.98;585891;242;40317;-74
2022/11/10 10:21:49;;;;;;;;;;;;;;;24.11;56.69;97618.30;586123;241;41127;-74
2022/11/10 10:24:37;;;;;;;;;;;;;;;24.10;57.02;97613.22;587772;241;41849;-74
2022/11/10 10:27:25;;;;;;;;;;;;;;;24.10;57.02;97619.39;587725;241;40313;-73
2022/11/10 10:30:18;;;;;;;;;;;;;;;24.09;57.32;97612.42;587780;241;39074;-75
2022/11/10 10:33:14;;;;;;;;;;;;;;;24.09;57.27;97617.80;587736;241;44997;-73
2022/11/10 10:36:01;;;;;;;;;;;;;;;24.08;57.15;97608.11;587734;241;40418;-70
2022/11/10 10:38:48;;;;;;;;;;;;;;;24.09;55.95;97612.42;587752;241;39120;-73
2022/11/10 10:41:35;;;;;;;;;;;;;;;24.09;57.47;97608.91;587741;241;42933;-73
2022/11/10 10:44:21;;;;;;;;;;;;;;;24.08;58.31;97610.80;587779;241;40500;-72
2022/11/10 10:47:06;;;;;;;;;;;;;;;24.08;57.06;97607.31;587790;241;39538;-72
2022/11/10 10:49:52;;;;;;;;;;;;;;;24.06;57.75;97602.24;587731;241;40267;-73
2022/11/10 10:52:38;;;;;;;;;;;;;;;24.06;58.37;97610.30;587811;241;40072;-75
2022/11/10 10:55:25;;;;;;;;;;;;;;;24.06;56.82;97602.24;587828;240;39052;-74
2022/11/10 10:58:20;;;;;;;;;;;;;;;24.07;55.65;97606.52;587805;241;40290;-72
2022/11/10 11:01:08;;;;;;;;;;;;;;;24.07;56.86;97606.52;587731;241;44890;-70
2022/11/10 11:03:53;;;;;;;;;;;;;;;24.08;57.91;97605.42;587690;241;41075;-73
2022/11/10 11:06:38;;;;;;;;;;;;;;;24.07;56.71;97598.47;587738;241;44474;-72
2022/11/10 11:09:25;;;;;;;;;;;;;;;24.07;56.59;97593.09;587594;241;40408;-73
2022/11/10 11:12:12;;;;;;;;;;;;;;;24.06;56.58;97593.36;586408;239;39030;-73
2022/11/10 11:15:12;;;;;;;;;;;;;;;24.06;57.20;97594.19;586391;242;43355;-73
2022/11/10 11:18:00;;;;;;;;;;;;;;;24.06;58.05;97596.88;586344;242;44390;-74
2022/11/10 11:20:50;;;;;;;;;;;;;;;24.07;59.12;97595.78;586392;242;38734;-73
2022/11/10 11:23:40;;;;;;;;;;;;;;;24.07;56.62;97593.09;586392;242;41138;-72
2022/11/10 11:26:33;;;;;;;;;;;;;;;24.07;56.56;97593.09;586327;242;43156;-73
2022/11/10 11:29:23;;;;;;;;;;;;;;;24.07;57.87;97587.72;586381;242;39325;-73
2022/11/10 11:32:19;;;;;;;;;;;;;;;24.06;57.81;97591.50;586428;242;44872;-73
2022/11/10 11:35:16;;;;;;;;;;;;;;;24.05;57.79;97589.08;582332;242;44537;-73
2022/11/10 11:38:20;;;;;;;;;;;;;;;24.04;56.90;97590.97;586430;242;39107;-73
2022/11/10 11:41:10;;;;;;;;;;;;;;;24.04;57.57;97580.23;586434;242;44648;-73
2022/11/10 11:44:09;;;;;;;;;;;;;;;24.03;58.17;97580.49;586452;242;40401;-73
2022/11/10 11:46:56;;;;;;;;;;;;;;;24.03;58.01;97580.49;575772;242;39312;-74
2022/11/10 11:49:56;;;;;;;;;;;;;;;24.02;57.73;97585.06;586486;242;44553;-74
2022/11/10 11:52:43;;;;;;;;;;;;;;;24.02;58.01;97584.27;575668;242;44683;-72
2022/11/10 11:55:30;;;;;;;;;;;;;;;24.01;58.63;97586.16;586464;242;39059;-72
2022/11/10 11:58:26;;;;;;;;;;;;;;;24.01;59.29;97588.84;586418;242;42056;-73
2022/11/10 12:01:13;;;;;;;;;;;;;;;24.00;57.37;97592.58;586396;242;40543;-72
2022/11/10 12:04:01;;;;;;;;;;;;;;;23.98;56.67;97586.71;589631;240;39193;-71
2022/11/10 12:07:04;;;;;;;;;;;;;;;23.98;56.02;97592.08;590146;240;40539;-71
2022/11/10 12:09:52;;;;;;;;;;;;;;;23.99;57.12;97590.19;590252;240;39295;-69
2022/11/10 12:12:39;;;;;;;;;;;;;;;23.98;57.16;97594.77;590264;240;39390;-73
2022/11/10 12:15:33;;;;;;;;;;;;;;;24.00;57.99;97597.95;590184;240;44808;-71
2022/11/10 12:18:23;;;;;;;;;;;;;;;24.00;59.40;97592.58;590306;240;40187;-70
2022/11/10 12:21:13;;;;;;;;;;;;;;;23.99;58.28;97596.36;590201;240;40003;-73
2022/11/10 12:24:19;;;;;;;;;;;;;;;24.00;58.23;97595.27;590144;240;40437;-72
2022/11/10 12:27:06;;;;;;;;;;;;;;;24.00;57.54;97591.79;590160;240;40738;-72
2022/11/10 12:30:06;;;;;;;;;;;;;;;24.00;58.52;97597.16;590106;240;40070;-71
2022/11/10 12:32:59;;;;;;;;;;;;;;;24.00;58.63;97594.47;590202;240;40313;-71
2022/11/10 12:35:46;;;;;;;;;;;;;;;23.99;58.87;97599.05;590030;240;40420;-72
2022/11/10 12:38:33;;;;;;;;;;;;;;;23.98;57.55;97600.13;590211;240;39045;-74
2022/11/10 12:41:20;;;;;;;;;;;;;;;23.99;58.54;97600.94;590219;240;40491;-73
2022/11/10 12:44:07;;;;;;;;;;;;;;;23.97;58.29;97603.88;590146;240;39402;-72
2022/11/10 12:46:54;;;;;;;;;;;;;;;23.98;57.93;97602.82;590226;240;38926;-73
2022/11/10 12:49:41;;;;;;;;;;;;;;;24.00;58.64;97608.69;590196;240;40027;-73
2022/11/10 12:52:28;;;;;;;;;;;;;;;23.98;59.10;97607.36;590195;240;40506;-73
2022/11/10 12:55:14;;;;;;;;;;;;;;;23.97;57.11;97617.30;590244;240;40997;-67
2022/11/10 12:58:01;;;;;;;;;;;;;;;23.96;57.05;97610.34;590202;240;43510;-66
2022/11/10 13:01:00;;;;;;;;;;;;;;;23.95;56.64;97611.40;590190;240;40441;-69
2022/11/10 13:03:53;;;;;;;;;;;;;;;23.95;57.41;97613.28;590192;240;39200;-66
2022/11/10 13:06:40;;;;;;;;;;;;;;;23.95;55.75;97615.97;590197;240;43100;-68
2022/11/10 13:09:27;;;;;;;;;;;;;;;23.92;56.58;97620.80;590225;240;40525;-67
2022/11/10 13:12:17;;;;;;;;;;;;;;;23.92;57.60;97625.38;590204;240;39104;-66
2022/11/10 13:15:04;;;;;;;;;;;;;;;23.91;56.00;97632.63;590253;240;40401;-67
2022/11/10 13:17:49;;;;;;;;;;;;;;;;;;590231;240;40430;-68
2022/11/10 13:20:51;;;;;;;;;;;;;;;23.91;59.27;97639.89;590231;240;40969;-66
2022/11/10 13:23:39;;;;;;;;;;;;;;;23.91;59.27;97635.31;590154;240;40404;-67
2022/11/10 13:26:41;;;;;;;;;;;;;;;23.92;59.05;97642.28;590151;240;40238;-67
2022/11/10 13:29:35;;;;;;;;;;;;;;;23.93;57.70;97645.80;590240;240;39740;-67
2022/11/10 13:32:25;;;;;;;;;;;;;;;23.92;58.29;97650.33;590190;240;44745;-67
2022/11/10 13:35:30;;;;;;;;;;;;;;;23.93;59.88;97648.47;590221;240;40350;-67
2022/11/10 13:38:20;;;;;;;;;;;;;;;23.92;58.87;97657.59;590187;240;39228;-67
2022/11/10 13:41:05;;;;;;;;;;;;;;;;;;590157;240;40425;-67
2022/11/10 13:43:54;;;;;;;;;;;;;;;23.89;57.51;97656.25;600744;236;38899;-67
2022/11/10 13:46:41;;;;;;;;;;;;;;;23.90;58.39;97657.08;600896;236;39144;-67
2022/11/10 13:49:34;;;;;;;;;;;;;;;23.91;58.43;97661.36;600893;236;40305;-68
2022/11/10 13:52:24;;;;;;;;;;;;;;;23.88;55.53;97656.55;600904;236;44682;-67
2022/11/10 13:55:14;;;;;;;;;;;;;;;23.89;57.63;97660.82;600882;236;39748;-69
2022/11/10 13:58:01;;;;;;;;;;;;;;;23.89;57.42;97666.99;600918;234;40288;-71
2022/11/10 14:00:51;;;;;;;;;;;;;;;23.87;56.43;97673.70;600871;236;40560;-70
2022/11/10 14:03:47;;;;;;;;;;;;;;;23.89;56.81;97683.09;600931;236;39183;-70
2022/11/10 14:06:42;;;;;;;;;;;;;;;23.91;58.05;97680.15;600887;236;44512;-69
2022/11/10 14:09:38;;;;;;;;;;;;;;;23.91;57.72;97680.95;600857;236;42893;-71
2022/11/10 14:12:35;;;;;;;;;;;;;;;23.91;59.16;97686.31;600970;236;39400;-69
2022/11/10 14:15:22;;;;;;;;;;;;;;;23.90;57.84;97683.92;600899;236;39768;-70
2022/11/10 14:18:25;;;;;;;;;;;;;;;23.91;58.21;97685.52;600940;236;44148;-70
2022/11/10 14:21:10;;;;;;;;;;;;;;;;;;600945;236;39642;-70
2022/11/10 14:23:57;;;;;;;;;;;;;;;23.91;59.23;97698.94;600855;236;39290;-69
2022/11/10 14:26:42;;;;;;;;;;;;;;;;;;600892;236;41897;-70
2022/11/10 14:29:37;;;;;;;;;;;;;;;23.90;58.31;97691.98;600981;236;41181;-74
2022/11/10 14:32:23;;;;;;;;;;;;;;;23.90;57.20;97689.30;600962;236;44277;-71
2022/11/10 14:35:10;;;;;;;;;;;;;;;23.91;58.78;97690.89;600971;236;38903;-71
2022/11/10 14:38:03;;;;;;;;;;;;;;;23.90;60.58;97691.98;600847;236;41226;-71
2022/11/10 14:40:50;;;;;;;;;;;;;;;23.90;59.65;97697.34;600844;236;44872;-69
2022/11/10 14:43:36;;;;;;;;;;;;;;;23.89;59.64;97701.09;599165;236;40421;-70
2022/11/10 14:46:21;;;;;;;;;;;;;;;;;;599028;237;41079;-72
2022/11/10 14:49:09;;;;;;;;;;;;;;;23.88;53.34;97699.49;599062;237;43389;-70
2022/11/10 14:51:56;;;;;;;;;;;;;;;23.88;57.82;97708.34;599002;237;40444;-70